createdAt,value
2023-01-20T00:00:31.161Z,0.40
2023-01-20T00:02:59.701Z,0.40
2023-01-20T00:05:28.183Z,0.40
2023-01-20T00:07:56.626Z,0.57
2023-01-20T00:10:25.260Z,0.60
2023-01-20T00:12:53.759Z,0.70
2023-01-20T00:15:22.216Z,0.80
2023-01-20T00:17:52.062Z,0.90
2023-01-20T00:20:20.753Z,0.60
2023-01-20T00:22:49.504Z,0.60
2023-01-20T00:25:18.265Z,0.53
2023-01-20T00:27:46.960Z,0.40
2023-01-20T00:30:15.890Z,0.43
2023-01-20T00:32:44.794Z,0.40
2023-01-20T00:35:15.829Z,0.50
2023-01-20T00:37:45.135Z,0.70
2023-01-20T00:40:14.120Z,0.60
2023-01-20T00:42:42.528Z,0.70
2023-01-20T00:45:12.512Z,0.67
2023-01-20T00:47:41.119Z,0.70
2023-01-20T00:50:11.178Z,0.90
2023-01-20T00:52:40.958Z,0.70
2023-01-20T00:55:10.789Z,1.70
2023-01-20T00:57:39.359Z,1.30
2023-01-20T01:00:10.470Z,1.30
2023-01-20T01:02:40.208Z,1.43
2023-01-20T01:05:09.442Z,1.60
2023-01-20T01:07:37.901Z,1.50
2023-01-20T01:10:09.515Z,4.80
2023-01-20T01:12:38.261Z,5.50
2023-01-20T01:15:08.157Z,4.17
2023-01-20T01:17:36.677Z,3.00
2023-01-20T01:20:05.996Z,1.90
2023-01-20T01:22:34.641Z,1.53
2023-01-20T01:25:03.245Z,1.40
2023-01-20T01:27:33.232Z,1.30
2023-01-20T01:30:01.809Z,1.30
2023-01-20T01:32:30.656Z,1.20
2023-01-20T01:34:59.150Z,1.10
2023-01-20T01:37:29.102Z,1.27
2023-01-20T01:39:58.372Z,2.20
2023-01-20T01:42:28.376Z,2.87
2023-01-20T01:45:23.276Z,1.73
2023-01-20T01:48:02.648Z,1.70
2023-01-20T01:50:39.724Z,1.80
2023-01-20T01:53:10.478Z,1.80
2023-01-20T01:55:46.051Z,1.03
2023-01-20T01:58:19.463Z,1.40
2023-01-20T02:00:49.406Z,1.20
2023-01-20T02:03:18.491Z,1.67
2023-01-20T02:05:51.354Z,1.80
2023-01-20T02:08:20.714Z,1.77
2023-01-20T02:11:07.840Z,2.80
2023-01-20T02:13:36.631Z,2.77
2023-01-20T02:16:19.622Z,2.53
2023-01-20T02:19:16.392Z,1.40
2023-01-20T02:22:20.211Z,1.30
2023-01-20T02:25:47.529Z,1.80
2023-01-20T02:29:00.910Z,1.23
2023-01-20T02:32:12.435Z,0.70
2023-01-20T02:34:50.158Z,0.77
2023-01-20T02:37:24.763Z,0.70
2023-01-20T02:40:06.275Z,1.00
2023-01-20T02:42:44.674Z,0.87
2023-01-20T02:45:20.787Z,0.80
2023-01-20T02:47:58.546Z,0.80
2023-01-20T02:50:46.623Z,0.83
2023-01-20T02:53:19.006Z,0.80
2023-01-20T02:55:50.896Z,0.70
2023-01-20T02:58:26.659Z,0.70
2023-01-20T03:01:01.796Z,0.70
2023-01-20T03:03:38.533Z,0.80
2023-01-20T03:06:13.694Z,1.00
2023-01-20T03:08:42.842Z,0.87
2023-01-20T03:11:11.387Z,0.70
2023-01-20T03:13:48.269Z,0.80
2023-01-20T03:16:21.976Z,0.70
2023-01-20T03:18:53.620Z,0.87
2023-01-20T03:21:34.387Z,0.90
2023-01-20T03:24:06.594Z,0.90
2023-01-20T03:26:35.796Z,0.93
2023-01-20T03:29:08.959Z,1.07
2023-01-20T03:31:42.180Z,1.20
2023-01-20T03:34:18.192Z,1.30
2023-01-20T03:36:48.035Z,1.40
2023-01-20T03:39:17.101Z,1.37
2023-01-20T03:42:05.965Z,1.37
2023-01-20T03:44:59.971Z,1.17
2023-01-20T03:47:48.976Z,1.37
2023-01-20T03:50:33.847Z,1.50
2023-01-20T03:53:13.477Z,1.90
2023-01-20T03:55:49.255Z,1.50
2023-01-20T03:58:24.799Z,1.57
2023-01-20T04:00:55.149Z,1.57
2023-01-20T04:03:30.441Z,1.70
2023-01-20T04:06:05.117Z,1.40
2023-01-20T04:08:38.663Z,1.80
2023-01-20T04:11:09.609Z,1.87
2023-01-20T04:13:38.645Z,1.43
2023-01-20T04:16:14.637Z,1.70
2023-01-20T04:18:45.165Z,1.50
2023-01-20T04:21:23.683Z,1.70
2023-01-20T04:23:58.980Z,2.50
2023-01-20T04:26:27.500Z,2.00
2023-01-20T04:29:13.110Z,2.00
2023-01-20T04:31:41.855Z,2.03
2023-01-20T04:34:15.484Z,2.23
2023-01-20T04:36:45.412Z,2.40
2023-01-20T04:39:13.853Z,2.60
2023-01-20T04:41:42.701Z,2.37
2023-01-20T04:44:11.275Z,2.27
2023-01-20T04:46:39.888Z,2.53
2023-01-20T04:49:10.284Z,4.00
2023-01-20T04:51:39.140Z,10.63
2023-01-20T04:54:09.068Z,9.90
2023-01-20T04:56:37.586Z,11.00
2023-01-20T04:59:06.625Z,8.67
2023-01-20T05:01:35.211Z,4.73
2023-01-20T05:04:03.926Z,3.67
2023-01-20T05:06:32.558Z,4.17
2023-01-20T05:09:01.027Z,3.87
2023-01-20T05:11:30.867Z,3.60
2023-01-20T05:13:59.319Z,2.27
2023-01-20T05:16:32.019Z,3.83
2023-01-20T05:19:00.721Z,4.83
2023-01-20T05:21:29.582Z,4.80
2023-01-20T05:23:59.050Z,3.83
2023-01-20T05:26:27.790Z,3.60
2023-01-20T05:28:57.732Z,3.97
2023-01-20T05:31:26.323Z,2.83
2023-01-20T05:33:54.823Z,3.30
2023-01-20T05:36:53.039Z,3.73
2023-01-20T05:39:22.508Z,2.57
2023-01-20T05:41:51.253Z,5.60
2023-01-20T05:44:21.093Z,21.87
2023-01-20T05:46:49.515Z,7.40
2023-01-20T05:49:17.954Z,6.40
2023-01-20T05:51:46.358Z,7.20
2023-01-20T05:54:14.854Z,7.30
2023-01-20T05:56:43.232Z,7.37
2023-01-20T05:59:11.899Z,5.33
2023-01-20T06:01:41.853Z,6.07
2023-01-20T06:04:10.452Z,12.73
2023-01-20T06:06:39.491Z,12.93
2023-01-20T06:09:07.942Z,9.83
2023-01-20T06:11:36.485Z,9.90
2023-01-20T06:14:05.120Z,5.27
2023-01-20T06:16:33.636Z,9.27
2023-01-20T06:19:03.632Z,6.40
2023-01-20T06:21:32.197Z,3.53
2023-01-20T06:24:25.977Z,4.03
2023-01-20T06:26:54.519Z,3.10
2023-01-20T06:29:23.423Z,3.70
2023-01-20T06:31:51.930Z,2.73
2023-01-20T06:34:21.772Z,2.97
2023-01-20T06:36:50.253Z,2.60
2023-01-20T06:39:18.743Z,2.67
2023-01-20T06:41:47.496Z,2.60
2023-01-20T06:44:17.336Z,4.17
2023-01-20T06:46:48.209Z,5.37
2023-01-20T06:49:17.101Z,3.27
2023-01-20T06:51:47.844Z,2.47
2023-01-20T06:54:16.754Z,1.90
2023-01-20T06:56:45.772Z,4.83
2023-01-20T06:59:14.905Z,24.13
2023-01-20T07:01:43.563Z,4.93
2023-01-20T07:04:15.339Z,3.57
2023-01-20T07:06:44.106Z,3.10
2023-01-20T07:09:15.185Z,2.87
2023-01-20T07:11:43.749Z,6.27
2023-01-20T07:14:12.224Z,11.13
2023-01-20T07:16:41.034Z,5.67
2023-01-20T07:19:09.700Z,3.10
2023-01-20T07:21:38.273Z,4.30
2023-01-20T07:24:07.923Z,3.80
2023-01-20T07:26:37.948Z,4.77
2023-01-20T07:29:06.401Z,4.90
2023-01-20T07:31:34.943Z,4.83
2023-01-20T07:34:03.599Z,6.10
2023-01-20T07:36:32.028Z,10.23
2023-01-20T07:39:00.468Z,10.77
2023-01-20T07:41:28.951Z,9.73
2023-01-20T07:43:58.757Z,13.27
2023-01-20T07:46:27.261Z,12.03
2023-01-20T07:48:57.064Z,12.73
2023-01-20T07:51:25.527Z,21.67
2023-01-20T07:54:18.706Z,18.00
2023-01-20T07:56:47.136Z,26.97
2023-01-20T07:59:16.970Z,12.40
2023-01-20T08:01:45.550Z,11.77
2023-01-20T08:04:14.461Z,11.73
2023-01-20T08:06:42.850Z,11.30
2023-01-20T08:09:14.669Z,12.23
2023-01-20T08:12:04.676Z,10.60
2023-01-20T08:14:36.982Z,10.33
2023-01-20T08:17:30.747Z,10.30
2023-01-20T08:19:59.185Z,16.93
2023-01-20T08:22:30.021Z,15.53
2023-01-20T08:24:58.463Z,11.33
2023-01-20T08:27:26.963Z,11.03
2023-01-20T08:29:57.325Z,11.97
2023-01-20T08:32:25.836Z,13.67
2023-01-20T08:34:55.032Z,14.10
2023-01-20T08:37:23.751Z,14.03
2023-01-20T08:39:52.260Z,11.07
2023-01-20T08:42:20.742Z,8.90
2023-01-20T08:44:53.533Z,9.10
2023-01-20T08:47:23.889Z,8.90
2023-01-20T08:49:54.322Z,9.10
2023-01-20T08:52:22.865Z,13.80
2023-01-20T08:54:54.080Z,11.83
2023-01-20T08:57:22.655Z,13.77
2023-01-20T08:59:51.051Z,11.97
2023-01-20T09:02:19.555Z,9.17
2023-01-20T09:04:50.972Z,8.57
2023-01-20T09:07:20.976Z,10.37
2023-01-20T09:09:49.640Z,9.40
2023-01-20T09:12:18.118Z,10.93
2023-01-20T09:14:46.792Z,11.07
2023-01-20T09:17:16.084Z,10.37
2023-01-20T09:19:44.554Z,12.43
2023-01-20T09:22:16.533Z,11.77
2023-01-20T09:24:45.105Z,7.60
2023-01-20T09:27:13.560Z,7.87
2023-01-20T09:29:42.087Z,8.90
2023-01-20T09:32:12.163Z,11.10
2023-01-20T09:34:40.717Z,11.37
2023-01-20T09:37:40.974Z,12.40
2023-01-20T09:40:32.046Z,12.70
2023-01-20T09:43:45.217Z,9.20
2023-01-20T09:46:24.489Z,8.80
2023-01-20T09:49:27.624Z,9.13
2023-01-20T09:55:29.121Z,7.20
2023-01-20T09:58:14.195Z,7.67
2023-01-20T10:01:14.018Z,5.40
2023-01-20T10:03:49.515Z,5.30
2023-01-20T10:06:26.418Z,4.90
2023-01-20T10:09:05.881Z,4.20
2023-01-20T10:11:42.890Z,5.97
2023-01-20T10:14:22.668Z,6.37
2023-01-20T10:16:59.184Z,7.30
2023-01-20T10:19:58.965Z,7.10
2023-01-20T10:22:37.818Z,5.60
2023-01-20T10:25:14.087Z,3.93
2023-01-20T10:28:10.508Z,2.70
2023-01-20T10:30:39.658Z,2.83
2023-01-20T10:33:12.858Z,2.03
2023-01-20T10:35:48.489Z,1.93
2023-01-20T10:38:30.315Z,1.80
2023-01-20T10:41:09.170Z,1.90
2023-01-20T10:43:39.045Z,1.60
2023-01-20T10:46:55.519Z,1.60
2023-01-20T10:50:19.061Z,1.80
2023-01-20T10:54:08.013Z,2.40
2023-01-20T10:56:44.620Z,3.17
2023-01-20T10:59:21.657Z,2.80
2023-01-20T11:02:19.186Z,2.40
2023-01-20T11:04:56.023Z,3.50
2023-01-20T11:07:24.717Z,2.27
2023-01-20T11:09:55.393Z,2.17
2023-01-20T11:12:29.928Z,1.80
2023-01-20T11:15:02.515Z,3.07
2023-01-20T11:17:31.037Z,2.03
2023-01-20T11:20:22.316Z,1.33
2023-01-20T11:23:22.620Z,1.70
2023-01-20T11:25:59.607Z,1.90
2023-01-20T11:28:33.455Z,1.40
2023-01-20T11:31:04.841Z,1.10
2023-01-20T11:33:33.389Z,1.30
2023-01-20T11:36:05.758Z,1.00
2023-01-20T11:38:44.653Z,3.80
2023-01-20T11:41:21.397Z,2.10
2023-01-20T11:43:52.199Z,4.93
2023-01-20T11:46:32.095Z,4.53
2023-01-20T11:49:20.396Z,4.43
2023-01-20T11:51:53.870Z,3.37
2023-01-20T11:54:26.528Z,1.83
2023-01-20T11:56:59.963Z,1.20
2023-01-20T11:59:31.266Z,1.80
2023-01-20T12:02:23.322Z,2.50
2023-01-20T12:05:12.761Z,4.80
2023-01-20T12:07:47.225Z,2.93
2023-01-20T12:10:20.190Z,1.97
2023-01-20T12:12:59.801Z,1.10
2023-01-20T12:15:33.020Z,1.07
2023-01-20T12:18:13.384Z,1.43
2023-01-20T12:20:54.846Z,0.80
2023-01-20T12:23:45.835Z,0.80
2023-01-20T12:26:16.702Z,1.67
2023-01-20T12:28:57.362Z,2.53
2023-01-20T12:31:26.410Z,2.27
2023-01-20T12:34:03.596Z,2.17
2023-01-20T12:37:04.535Z,4.20
2023-01-20T12:40:16.905Z,3.60
2023-01-20T12:43:34.573Z,1.93
2023-01-20T12:46:40.546Z,1.70
2023-01-20T12:49:59.405Z,2.00
2023-01-20T12:53:01.194Z,1.10
2023-01-20T12:55:47.158Z,3.90
2023-01-20T12:58:39.935Z,2.50
2023-01-20T13:01:35.497Z,3.77
2023-01-20T13:05:10.491Z,2.33
2023-01-20T13:08:14.977Z,2.40
2023-01-20T13:11:17.388Z,5.43
2023-01-20T13:14:18.872Z,4.13
2023-01-20T13:16:54.731Z,2.20
2023-01-20T13:19:31.843Z,4.20
2023-01-20T13:22:11.487Z,4.40
2023-01-20T13:24:44.983Z,1.90
2023-01-20T13:27:15.185Z,1.20
2023-01-20T13:29:55.335Z,2.00
2023-01-20T13:32:36.414Z,2.13
2023-01-20T13:35:50.116Z,1.63
2023-01-20T13:38:27.862Z,3.80
2023-01-20T13:41:03.031Z,3.33
2023-01-20T13:43:49.880Z,4.57
2023-01-20T13:47:02.448Z,2.90
2023-01-20T13:49:49.892Z,2.53
2023-01-20T13:53:13.501Z,1.73
2023-01-20T13:56:01.343Z,1.57
2023-01-20T13:58:32.760Z,1.40
2023-01-20T14:01:03.974Z,1.00
2023-01-20T14:03:35.178Z,1.17
2023-01-20T14:06:07.039Z,1.10
2023-01-20T14:08:42.400Z,1.00
2023-01-20T14:11:17.703Z,0.90
2023-01-20T14:13:55.082Z,0.90
2023-01-20T14:16:28.672Z,1.13
2023-01-20T14:19:00.050Z,1.10
2023-01-20T14:21:32.154Z,1.10
2023-01-20T14:24:00.701Z,6.10
2023-01-20T14:26:33.394Z,1.30
2023-01-20T14:29:03.818Z,1.80
2023-01-20T14:31:40.784Z,1.00
2023-01-20T14:34:28.114Z,1.10
2023-01-20T14:37:00.096Z,1.17
2023-01-20T14:39:31.323Z,1.17
2023-01-20T14:42:02.569Z,1.20
2023-01-20T14:44:33.782Z,1.50
2023-01-20T14:47:04.844Z,1.30
2023-01-20T14:49:39.476Z,1.13
2023-01-20T14:52:09.436Z,1.30
2023-01-20T14:54:43.536Z,1.20
2023-01-20T14:57:31.882Z,1.30
2023-01-20T15:00:13.700Z,1.10
2023-01-20T15:02:45.687Z,1.30
2023-01-20T15:05:28.478Z,1.10
2023-01-20T15:08:26.211Z,1.20
2023-01-20T15:11:26.126Z,1.20
2023-01-20T15:14:11.254Z,1.30
2023-01-20T15:16:52.084Z,1.30
2023-01-20T15:19:36.240Z,1.20
2023-01-20T15:22:27.152Z,1.17
2023-01-20T15:24:56.259Z,1.40
2023-01-20T15:27:33.404Z,1.10
2023-01-20T15:30:21.131Z,1.30
2023-01-20T15:32:51.353Z,1.30
2023-01-20T15:35:26.932Z,1.17
2023-01-20T15:37:55.703Z,1.47
2023-01-20T15:40:26.840Z,1.37
2023-01-20T15:43:20.643Z,1.33
2023-01-20T15:45:50.546Z,1.37
2023-01-20T15:48:22.252Z,1.60
2023-01-20T15:50:50.880Z,1.70
2023-01-20T15:53:19.423Z,1.60
2023-01-20T15:55:50.659Z,1.90
2023-01-20T15:58:26.783Z,2.10
2023-01-20T16:00:58.685Z,2.13
2023-01-20T16:03:28.665Z,3.37
2023-01-20T16:05:57.746Z,6.20
2023-01-20T16:08:38.775Z,2.93
2023-01-20T16:11:21.020Z,2.77
2023-01-20T16:13:49.655Z,2.70
2023-01-20T16:16:22.523Z,2.83
2023-01-20T16:18:51.563Z,3.17
2023-01-20T16:21:20.974Z,2.87
2023-01-20T16:23:49.935Z,3.10
2023-01-20T16:26:23.395Z,3.00
2023-01-20T16:28:53.377Z,3.00
2023-01-20T16:31:23.973Z,3.03
2023-01-20T16:33:56.792Z,2.73
2023-01-20T16:36:25.970Z,2.93
2023-01-20T16:38:54.509Z,4.10
2023-01-20T16:41:25.508Z,2.77
2023-01-20T16:43:56.701Z,2.70
2023-01-20T16:46:29.578Z,3.10
2023-01-20T16:49:01.737Z,3.30
2023-01-20T16:51:32.004Z,4.40
2023-01-20T16:54:01.285Z,3.70
2023-01-20T16:56:32.282Z,3.93
2023-01-20T16:59:03.716Z,5.00
2023-01-20T17:01:33.595Z,4.20
2023-01-20T17:04:05.046Z,3.57
2023-01-20T17:06:35.977Z,2.77
2023-01-20T17:09:07.081Z,3.20
2023-01-20T17:11:38.226Z,2.80
2023-01-20T17:14:09.149Z,3.97
2023-01-20T17:16:40.277Z,5.20
2023-01-20T17:19:10.378Z,3.00
2023-01-20T17:21:40.549Z,2.93
2023-01-20T17:24:09.500Z,3.00
2023-01-20T17:26:38.828Z,3.30
2023-01-20T17:29:08.679Z,3.50
2023-01-20T17:31:40.378Z,3.50
2023-01-20T17:34:11.000Z,3.80
2023-01-20T17:36:45.819Z,3.37
2023-01-20T17:39:14.492Z,3.53
2023-01-20T17:41:43.123Z,3.20
2023-01-20T17:44:11.904Z,3.10
2023-01-20T17:46:41.929Z,3.00
2023-01-20T17:49:11.108Z,3.50
2023-01-20T17:51:39.667Z,3.13
2023-01-20T17:54:08.099Z,2.87
2023-01-20T17:56:36.937Z,3.33
2023-01-20T17:59:06.498Z,10.90
2023-01-20T18:01:35.403Z,3.80
2023-01-20T18:04:10.175Z,4.27
2023-01-20T18:06:39.737Z,3.50
2023-01-20T18:09:09.019Z,3.50
2023-01-20T18:11:39.275Z,3.23
2023-01-20T18:14:08.911Z,3.27
2023-01-20T18:16:41.604Z,3.43
2023-01-20T18:19:14.230Z,3.43
2023-01-20T18:21:44.982Z,3.47
2023-01-20T18:24:15.124Z,3.57
2023-01-20T18:26:44.327Z,3.30
2023-01-20T18:29:16.648Z,3.50
2023-01-20T18:31:47.109Z,3.40
2023-01-20T18:34:17.511Z,4.03
2023-01-20T18:36:48.645Z,4.57
2023-01-20T18:39:19.693Z,4.70
2023-01-20T18:41:49.625Z,4.40
2023-01-20T18:44:18.993Z,4.37
2023-01-20T18:46:48.088Z,4.60
2023-01-20T18:49:19.397Z,5.00
2023-01-20T18:51:48.238Z,5.07
2023-01-20T18:54:21.140Z,4.40
2023-01-20T18:56:50.165Z,3.83
2023-01-20T18:59:19.017Z,5.30
2023-01-20T19:01:48.558Z,4.30
2023-01-20T19:04:18.589Z,4.23
2023-01-20T19:06:47.277Z,4.20
2023-01-20T19:09:24.571Z,4.27
2023-01-20T19:11:53.547Z,4.03
2023-01-20T19:14:22.266Z,4.27
2023-01-20T19:16:50.924Z,4.50
2023-01-20T19:19:21.030Z,4.07
2023-01-20T19:21:52.846Z,3.80
2023-01-20T19:24:22.924Z,3.77
2023-01-20T19:26:51.604Z,3.50
2023-01-20T19:29:30.920Z,3.37
2023-01-20T19:31:59.511Z,3.50
2023-01-20T19:34:29.739Z,3.60
2023-01-20T19:37:23.466Z,4.03
2023-01-20T19:39:52.002Z,3.40
2023-01-20T19:42:20.677Z,3.70
2023-01-20T19:44:49.265Z,3.77
2023-01-20T19:47:17.907Z,4.23
2023-01-20T19:49:47.833Z,4.20
2023-01-20T19:52:16.538Z,4.23
2023-01-20T19:54:45.070Z,4.53
2023-01-20T19:57:13.993Z,4.57
2023-01-20T19:59:43.551Z,4.30
2023-01-20T20:02:12.442Z,4.10
2023-01-20T20:04:41.058Z,4.90
2023-01-20T20:07:11.051Z,5.03
2023-01-20T20:09:39.651Z,4.60
2023-01-20T20:12:08.347Z,5.03
2023-01-20T20:14:36.975Z,5.17
2023-01-20T20:17:05.717Z,3.90
2023-01-20T20:19:35.119Z,4.50
2023-01-20T20:22:04.194Z,4.53
2023-01-20T20:24:34.409Z,3.87
2023-01-20T20:27:03.359Z,4.50
2023-01-20T20:30:01.393Z,4.80
2023-01-20T20:32:32.150Z,4.83
2023-01-20T20:35:00.952Z,5.37
2023-01-20T20:37:32.775Z,5.27
2023-01-20T20:40:03.135Z,4.63
2023-01-20T20:42:37.912Z,4.60
2023-01-20T20:45:11.812Z,4.30
2023-01-20T20:48:06.236Z,4.40
2023-01-20T20:50:35.592Z,4.57
2023-01-20T20:53:04.169Z,5.10
2023-01-20T20:55:34.001Z,8.27
2023-01-20T20:58:02.421Z,8.23
2023-01-20T21:00:30.978Z,7.97
2023-01-20T21:02:59.426Z,8.03
2023-01-20T21:05:28.139Z,7.10
2023-01-20T21:07:56.799Z,7.27
2023-01-20T21:10:25.309Z,5.67
2023-01-20T21:12:55.859Z,5.17
2023-01-20T21:15:24.647Z,5.97
2023-01-20T21:17:53.196Z,8.30
2023-01-20T21:20:21.630Z,6.83
2023-01-20T21:22:50.089Z,5.63
2023-01-20T21:25:18.793Z,4.97
2023-01-20T21:27:47.243Z,5.90
2023-01-20T21:30:41.822Z,7.17
2023-01-20T21:33:13.416Z,6.43
2023-01-20T21:35:42.148Z,7.37
2023-01-20T21:38:10.703Z,6.43
2023-01-20T21:40:39.358Z,5.40
2023-01-20T21:43:22.643Z,5.47
2023-01-20T21:45:55.266Z,5.33
2023-01-20T21:48:42.302Z,5.00
2023-01-20T21:51:29.067Z,5.23
2023-01-20T21:53:57.494Z,6.27
2023-01-20T21:56:25.967Z,5.73
2023-01-20T21:58:54.409Z,5.93
2023-01-20T22:01:24.310Z,6.60
2023-01-20T22:06:59.776Z,5.83
2023-01-20T22:09:28.229Z,4.90
2023-01-20T22:11:56.824Z,4.90
2023-01-20T22:14:25.446Z,4.70
2023-01-20T22:16:55.355Z,4.47
2023-01-20T22:19:49.419Z,4.67
2023-01-20T22:22:18.074Z,4.73
2023-01-20T22:24:46.585Z,3.67
2023-01-20T22:27:14.980Z,3.50
2023-01-20T22:29:43.393Z,3.63
2023-01-20T22:32:13.312Z,4.67
2023-01-20T22:34:41.797Z,4.87
2023-01-20T22:37:10.379Z,5.57
2023-01-20T22:39:38.853Z,5.77
2023-01-20T22:42:08.160Z,5.80
2023-01-20T22:44:36.632Z,6.07
2023-01-20T22:47:05.835Z,5.50
2023-01-20T22:49:35.744Z,5.83
2023-01-20T22:52:04.213Z,6.23
2023-01-20T22:54:32.734Z,6.83
2023-01-20T22:57:01.202Z,6.93
2023-01-20T22:59:29.867Z,6.87
2023-01-20T23:01:58.436Z,7.83
2023-01-20T23:04:27.580Z,7.87
2023-01-20T23:06:57.468Z,8.80
2023-01-20T23:09:49.984Z,8.80
2023-01-20T23:12:18.609Z,8.67
2023-01-20T23:15:02.841Z,9.13
2023-01-20T23:17:33.796Z,9.83
2023-01-20T23:20:02.322Z,10.00
2023-01-20T23:22:32.249Z,10.17
2023-01-20T23:25:00.676Z,10.77
2023-01-20T23:27:29.101Z,10.30
2023-01-20T23:29:57.593Z,10.47
2023-01-20T23:32:26.382Z,10.87
2023-01-20T23:34:54.963Z,11.00
2023-01-20T23:37:23.603Z,10.40
2023-01-20T23:39:53.491Z,11.47
2023-01-20T23:42:22.143Z,11.40
2023-01-20T23:44:50.795Z,11.90
2023-01-20T23:47:19.259Z,12.07
2023-01-20T23:50:13.087Z,12.63
2023-01-20T23:52:41.557Z,12.10
2023-01-20T23:55:11.741Z,14.70
2023-01-20T23:57:40.222Z,14.57
